createdAt,value
2019-02-25T00:00:49.330Z,1012.10
2019-02-25T00:01:49.457Z,1012.16
2019-02-25T00:02:49.596Z,1012.12
2019-02-25T00:03:49.731Z,1012.10
2019-02-25T00:04:49.859Z,1012.15
2019-02-25T00:05:49.977Z,1012.15
2019-02-25T00:06:50.099Z,1012.22
2019-02-25T00:07:50.222Z,1012.19
2019-02-25T00:08:50.346Z,1012.20
2019-02-25T00:09:50.464Z,1012.21
2019-02-25T00:10:50.591Z,1012.24
2019-02-25T00:11:50.721Z,1012.23
2019-02-25T00:12:50.849Z,1012.24
2019-02-25T00:13:50.986Z,1012.26
2019-02-25T00:14:51.101Z,1012.23
2019-02-25T00:15:51.225Z,1012.21
2019-02-25T00:16:51.361Z,1012.21
2019-02-25T00:17:51.486Z,1012.18
2019-02-25T00:18:51.615Z,1012.19
2019-02-25T00:19:51.760Z,1012.23
2019-02-25T00:20:51.874Z,1012.20
2019-02-25T00:21:51.999Z,1012.22
2019-02-25T00:22:52.121Z,1012.21
2019-02-25T00:23:52.257Z,1012.18
2019-02-25T00:24:52.393Z,1012.21
2019-02-25T00:25:52.523Z,1012.22
2019-02-25T00:26:52.647Z,1012.30
2019-02-25T00:27:52.775Z,1012.34
2019-02-25T00:28:52.932Z,1012.34
2019-02-25T00:29:53.056Z,1012.28
2019-02-25T00:30:53.173Z,1012.33
2019-02-25T00:31:53.299Z,1012.31
2019-02-25T00:32:53.427Z,1012.29
2019-02-25T00:33:53.542Z,1012.26
2019-02-25T00:34:53.667Z,1012.29
2019-02-25T00:35:53.803Z,1012.23
2019-02-25T00:36:53.921Z,1012.17
2019-02-25T00:37:54.056Z,1012.17
2019-02-25T00:38:54.211Z,1012.15
2019-02-25T00:39:54.323Z,1012.16
2019-02-25T00:40:54.450Z,1012.17
2019-02-25T00:41:54.581Z,1012.17
2019-02-25T00:42:54.704Z,1012.17
2019-02-25T00:43:54.827Z,1012.17
2019-02-25T00:44:54.954Z,1012.16
2019-02-25T00:45:55.091Z,1012.20
2019-02-25T00:46:55.214Z,1012.21
2019-02-25T00:47:55.348Z,1012.20
2019-02-25T00:48:55.476Z,1012.19
2019-02-25T00:49:55.602Z,1012.19
2019-02-25T00:50:55.727Z,1012.16
2019-02-25T00:51:55.857Z,1012.19
2019-02-25T00:52:55.991Z,1012.21
2019-02-25T00:53:56.115Z,1012.19
2019-02-25T00:54:56.256Z,1012.20
2019-02-25T00:55:56.370Z,1012.18
2019-02-25T00:56:56.498Z,1012.20
2019-02-25T00:57:56.615Z,1012.17
2019-02-25T00:58:56.740Z,1012.21
2019-02-25T00:59:56.861Z,1012.24
2019-02-25T01:00:57.029Z,1012.23
2019-02-25T01:01:57.130Z,1012.19
2019-02-25T01:02:57.248Z,1012.18
2019-02-25T01:03:57.377Z,1012.14
2019-02-25T01:04:57.553Z,1012.13
2019-02-25T01:05:57.671Z,1012.14
2019-02-25T01:06:57.796Z,1012.14
2019-02-25T01:07:57.925Z,1012.18
2019-02-25T01:08:58.103Z,1012.17
2019-02-25T01:09:58.216Z,1012.17
2019-02-25T01:10:58.333Z,1012.17
2019-02-25T01:11:58.514Z,1012.17
2019-02-25T01:12:58.615Z,1012.14
2019-02-25T01:13:58.744Z,1012.13
2019-02-25T01:14:58.871Z,1012.12
2019-02-25T01:15:59.022Z,1012.11
2019-02-25T01:16:59.140Z,1012.08
2019-02-25T01:18:00.023Z,1012.03
2019-02-25T01:18:59.394Z,1012.05
2019-02-25T01:19:59.547Z,1012.03
2019-02-25T01:20:59.669Z,1012.06
2019-02-25T01:21:59.789Z,1012.06
2019-02-25T01:22:59.916Z,1012.08
2019-02-25T01:24:00.070Z,1012.07
2019-02-25T01:25:00.301Z,1012.04
2019-02-25T01:26:00.308Z,1012.04
2019-02-25T01:27:00.444Z,1011.97
2019-02-25T01:28:00.599Z,1011.97
2019-02-25T01:29:00.701Z,1011.96
2019-02-25T01:30:00.825Z,1011.90
2019-02-25T01:31:00.974Z,1011.92
2019-02-25T01:32:01.118Z,1011.97
2019-02-25T01:33:01.225Z,1012.01
2019-02-25T01:34:01.358Z,1012.03
2019-02-25T01:35:01.493Z,1012.04
2019-02-25T01:36:01.604Z,1012.06
2019-02-25T01:37:01.729Z,1012.05
2019-02-25T01:38:01.871Z,1012.07
2019-02-25T01:39:01.994Z,1012.07
2019-02-25T01:40:02.145Z,1012.06
2019-02-25T01:41:02.277Z,1012.08
2019-02-25T01:42:02.407Z,1012.01
2019-02-25T01:43:02.537Z,1012.01
2019-02-25T01:44:02.654Z,1012.02
2019-02-25T01:45:02.802Z,1012.02
2019-02-25T01:46:02.930Z,1012.04
2019-02-25T01:47:03.067Z,1012.07
2019-02-25T01:48:03.182Z,1012.01
2019-02-25T01:49:03.338Z,1011.99
2019-02-25T01:50:03.459Z,1012.00
2019-02-25T01:51:03.586Z,1012.02
2019-02-25T01:52:03.707Z,1011.97
2019-02-25T01:53:03.854Z,1011.97
2019-02-25T01:54:03.977Z,1012.00
2019-02-25T01:55:04.113Z,1012.01
2019-02-25T01:56:04.223Z,1012.00
2019-02-25T01:57:04.366Z,1012.03
2019-02-25T01:58:04.479Z,1012.03
2019-02-25T01:59:04.604Z,1011.98
2019-02-25T02:00:04.729Z,1011.98
2019-02-25T02:01:04.881Z,1011.97
2019-02-25T02:02:04.998Z,1011.98
2019-02-25T02:03:05.128Z,1011.91
2019-02-25T02:04:05.250Z,1011.91
2019-02-25T02:05:05.403Z,1011.83
2019-02-25T02:06:05.529Z,1011.79
2019-02-25T02:07:05.661Z,1011.76
2019-02-25T02:08:05.782Z,1011.78
2019-02-25T02:09:05.916Z,1011.72
2019-02-25T02:10:06.038Z,1011.76
2019-02-25T02:11:06.164Z,1011.78
2019-02-25T02:12:06.285Z,1011.75
2019-02-25T02:13:14.011Z,1011.77
2019-02-25T02:14:06.542Z,1011.76
2019-02-25T02:15:06.670Z,1011.70
2019-02-25T02:16:06.794Z,1011.72
2019-02-25T02:17:06.919Z,1011.73
2019-02-25T02:18:07.052Z,1011.72
2019-02-25T02:19:07.173Z,1011.70
2019-02-25T02:20:07.303Z,1011.78
2019-02-25T02:21:07.428Z,1011.77
2019-02-25T02:22:07.550Z,1011.78
2019-02-25T02:23:07.690Z,1011.80
2019-02-25T02:24:07.829Z,1011.83
2019-02-25T02:25:07.948Z,1011.85
2019-02-25T02:26:08.071Z,1011.86
2019-02-25T02:27:08.197Z,1011.91
2019-02-25T02:28:08.336Z,1011.93
2019-02-25T02:29:08.459Z,1011.87
2019-02-25T02:30:08.592Z,1011.85
2019-02-25T02:31:08.731Z,1011.84
2019-02-25T02:32:08.907Z,1011.83
2019-02-25T02:33:09.008Z,1011.78
2019-02-25T02:34:09.106Z,1011.82
2019-02-25T02:35:09.279Z,1011.84
2019-02-25T02:36:11.565Z,1011.80
2019-02-25T02:37:09.469Z,1011.80
2019-02-25T02:38:09.586Z,1011.74
2019-02-25T02:39:09.733Z,1011.78
2019-02-25T02:40:09.886Z,1011.78
2019-02-25T02:41:09.987Z,1011.78
2019-02-25T02:42:10.121Z,1011.83
2019-02-25T02:43:10.223Z,1011.81
2019-02-25T02:44:10.321Z,1011.79
2019-02-25T02:45:10.447Z,1011.78
2019-02-25T02:46:10.571Z,1011.80
2019-02-25T02:47:10.725Z,1011.79
2019-02-25T02:48:10.851Z,1011.74
2019-02-25T02:49:10.975Z,1011.72
2019-02-25T02:50:11.169Z,1011.76
2019-02-25T02:51:11.253Z,1011.70
2019-02-25T02:52:11.383Z,1011.72
2019-02-25T02:53:11.508Z,1011.71
2019-02-25T02:54:11.664Z,1011.71
2019-02-25T02:55:11.785Z,1011.71
2019-02-25T02:56:11.910Z,1011.70
2019-02-25T02:57:12.039Z,1011.64
2019-02-25T02:58:12.163Z,1011.65
2019-02-25T02:59:12.293Z,1011.66
2019-02-25T03:00:12.415Z,1011.64
2019-02-25T03:01:12.546Z,1011.70
2019-02-25T03:02:12.661Z,1011.68
2019-02-25T03:03:12.789Z,1011.68
2019-02-25T03:04:12.946Z,1011.72
2019-02-25T03:05:13.071Z,1011.68
2019-02-25T03:06:13.195Z,1011.71
2019-02-25T03:07:13.321Z,1011.67
2019-02-25T03:08:13.479Z,1011.71
2019-02-25T03:09:13.596Z,1011.71
2019-02-25T03:10:13.716Z,1011.73
2019-02-25T03:11:13.846Z,1011.75
2019-02-25T03:12:13.955Z,1011.74
2019-02-25T03:13:14.079Z,1011.73
2019-02-25T03:14:14.206Z,1011.73
2019-02-25T03:15:14.342Z,1011.73
2019-02-25T03:16:14.479Z,1011.71
2019-02-25T03:17:14.603Z,1011.73
2019-02-25T03:18:14.733Z,1011.73
2019-02-25T03:19:14.855Z,1011.70
2019-02-25T03:20:14.988Z,1011.76
2019-02-25T03:21:15.110Z,1011.75
2019-02-25T03:22:15.233Z,1011.83
2019-02-25T03:23:15.360Z,1011.85
2019-02-25T03:24:15.500Z,1011.87
2019-02-25T03:25:15.622Z,1011.90
2019-02-25T03:26:15.745Z,1011.88
2019-02-25T03:27:15.871Z,1011.91
2019-02-25T03:28:16.024Z,1011.90
2019-02-25T03:29:16.124Z,1011.88
2019-02-25T03:30:16.263Z,1011.92
2019-02-25T03:31:16.377Z,1011.91
2019-02-25T03:32:16.522Z,1011.88
2019-02-25T03:33:16.646Z,1011.91
2019-02-25T03:34:16.775Z,1011.89
2019-02-25T03:35:16.917Z,1011.91
2019-02-25T03:36:17.056Z,1011.90
2019-02-25T03:37:17.173Z,1011.88
2019-02-25T03:38:17.304Z,1011.89
2019-02-25T03:39:17.429Z,1011.85
2019-02-25T03:40:17.570Z,1011.84
2019-02-25T03:41:17.689Z,1011.84
2019-02-25T03:42:17.822Z,1011.88
2019-02-25T03:43:17.962Z,1011.88
2019-02-25T03:44:18.079Z,1011.87
2019-02-25T03:45:18.206Z,1011.92
2019-02-25T03:46:18.331Z,1011.89
2019-02-25T03:47:18.486Z,1011.89
2019-02-25T03:48:18.597Z,1011.88
2019-02-25T03:49:18.712Z,1011.89
2019-02-25T03:50:18.847Z,1011.93
2019-02-25T03:51:18.965Z,1011.88
2019-02-25T03:52:19.095Z,1011.92
2019-02-25T03:53:19.239Z,1011.89
2019-02-25T03:54:19.367Z,1011.87
2019-02-25T03:55:19.489Z,1011.91
2019-02-25T03:56:19.649Z,1011.95
2019-02-25T03:57:19.761Z,1011.99
2019-02-25T03:58:19.884Z,1011.94
2019-02-25T03:59:20.035Z,1011.91
2019-02-25T04:00:20.167Z,1011.90
2019-02-25T04:01:20.290Z,1011.90
2019-02-25T04:02:20.408Z,1011.93
2019-02-25T04:03:20.553Z,1011.90
2019-02-25T04:04:20.675Z,1011.91
2019-02-25T04:05:20.804Z,1011.97
2019-02-25T04:06:20.927Z,1011.95
2019-02-25T04:07:21.070Z,1011.97
2019-02-25T04:08:21.194Z,1011.91
2019-02-25T04:09:21.321Z,1011.96
2019-02-25T04:10:21.449Z,1011.92
2019-02-25T04:11:21.575Z,1011.92
2019-02-25T04:12:21.718Z,1011.97
2019-02-25T04:13:21.825Z,1012.03
2019-02-25T04:14:21.950Z,1012.05
2019-02-25T04:15:22.069Z,1012.03
2019-02-25T04:16:22.212Z,1012.09
2019-02-25T04:17:22.330Z,1012.10
2019-02-25T04:18:22.461Z,1012.07
2019-02-25T04:19:22.589Z,1012.07
2019-02-25T04:20:22.748Z,1012.03
2019-02-25T04:21:22.867Z,1012.06
2019-02-25T04:22:22.992Z,1012.07
2019-02-25T04:23:23.111Z,1012.04
2019-02-25T04:24:23.250Z,1012.03
2019-02-25T04:25:23.375Z,1012.04
2019-02-25T04:26:23.503Z,1012.02
2019-02-25T04:27:23.619Z,1011.95
2019-02-25T04:28:23.783Z,1011.99
2019-02-25T04:29:23.895Z,1011.95
2019-02-25T04:30:24.025Z,1011.95
2019-02-25T04:31:24.141Z,1011.94
2019-02-25T04:32:24.291Z,1011.94
2019-02-25T04:33:24.417Z,1011.92
2019-02-25T04:34:24.541Z,1011.87
2019-02-25T04:35:24.677Z,1011.82
2019-02-25T04:36:24.825Z,1011.79
2019-02-25T04:37:24.933Z,1011.75
2019-02-25T04:38:25.061Z,1011.79
2019-02-25T04:39:25.205Z,1011.78
2019-02-25T04:40:25.324Z,1011.81
2019-02-25T04:41:25.453Z,1011.85
2019-02-25T04:42:25.569Z,1011.92
2019-02-25T04:43:25.715Z,1011.87
2019-02-25T04:44:25.854Z,1011.84
2019-02-25T04:45:25.973Z,1011.86
2019-02-25T04:46:26.097Z,1011.86
2019-02-25T04:47:26.258Z,1011.83
2019-02-25T04:48:26.373Z,1011.86
2019-02-25T04:49:26.489Z,1011.79
2019-02-25T04:50:26.621Z,1011.80
2019-02-25T04:51:26.778Z,1011.76
2019-02-25T04:52:26.909Z,1011.77
2019-02-25T04:53:27.023Z,1011.78
2019-02-25T04:54:27.160Z,1011.74
2019-02-25T04:55:27.286Z,1011.78
2019-02-25T04:56:27.407Z,1011.79
2019-02-25T04:57:27.560Z,1011.81
2019-02-25T04:58:27.681Z,1011.80
2019-02-25T04:59:27.815Z,1011.86
2019-02-25T05:00:27.956Z,1011.85
2019-02-25T05:01:28.088Z,1011.89
2019-02-25T05:02:28.214Z,1011.88
2019-02-25T05:03:28.338Z,1011.92
2019-02-25T05:04:28.480Z,1011.88
2019-02-25T05:05:28.612Z,1011.92
2019-02-25T05:06:28.729Z,1011.90
2019-02-25T05:07:28.864Z,1011.90
2019-02-25T05:08:28.978Z,1011.96
2019-02-25T05:09:29.101Z,1011.93
2019-02-25T05:10:29.227Z,1011.92
2019-02-25T05:11:29.366Z,1011.89
2019-02-25T05:12:29.479Z,1011.89
2019-02-25T05:13:29.601Z,1011.86
2019-02-25T05:14:29.726Z,1011.87
2019-02-25T05:15:29.863Z,1011.88
2019-02-25T05:16:29.979Z,1011.85
2019-02-25T05:17:30.112Z,1011.85
2019-02-25T05:18:30.236Z,1011.87
2019-02-25T05:19:30.364Z,1011.84
2019-02-25T05:20:30.490Z,1011.83
2019-02-25T05:21:30.618Z,1011.88
2019-02-25T05:22:30.731Z,1011.88
2019-02-25T05:23:30.858Z,1011.88
2019-02-25T05:24:30.983Z,1011.89
2019-02-25T05:25:31.108Z,1011.90
2019-02-25T05:26:31.231Z,1011.87
2019-02-25T05:27:31.357Z,1011.89
2019-02-25T05:28:31.486Z,1011.90
2019-02-25T05:29:31.606Z,1011.89
2019-02-25T05:30:31.734Z,1011.90
2019-02-25T05:31:31.861Z,1011.85
2019-02-25T05:32:31.984Z,1011.87
2019-02-25T05:33:32.117Z,1011.91
2019-02-25T05:34:32.236Z,1011.90
2019-02-25T05:35:32.368Z,1011.86
2019-02-25T05:36:32.486Z,1011.86
2019-02-25T05:37:32.620Z,1011.91
2019-02-25T05:38:32.737Z,1011.91
2019-02-25T05:39:32.863Z,1011.89
2019-02-25T05:40:32.985Z,1011.89
2019-02-25T05:41:33.107Z,1011.86
2019-02-25T05:42:33.243Z,1011.90
2019-02-25T05:43:33.369Z,1011.93
2019-02-25T05:44:33.492Z,1011.97
2019-02-25T05:45:33.631Z,1011.96
2019-02-25T05:46:33.749Z,1011.99
2019-02-25T05:47:33.874Z,1012.00
2019-02-25T05:48:34.001Z,1012.01
2019-02-25T05:49:34.144Z,1012.07
2019-02-25T05:50:34.246Z,1012.02
2019-02-25T05:51:34.373Z,1012.07
2019-02-25T05:52:34.503Z,1012.06
2019-02-25T05:53:34.619Z,1012.08
2019-02-25T05:54:34.743Z,1012.04
2019-02-25T05:55:34.877Z,1012.02
2019-02-25T05:56:34.992Z,1012.05
2019-02-25T05:57:35.110Z,1012.03
2019-02-25T05:58:35.235Z,1012.04
2019-02-25T05:59:35.364Z,1012.05
2019-02-25T06:00:35.491Z,1012.03
2019-02-25T06:01:35.603Z,1011.99
2019-02-25T06:02:35.746Z,1011.94
2019-02-25T06:03:35.881Z,1012.02
2019-02-25T06:04:36.003Z,1012.00
2019-02-25T06:05:36.127Z,1011.96
2019-02-25T06:06:36.243Z,1011.97
2019-02-25T06:07:36.377Z,1011.97
2019-02-25T06:08:36.496Z,1012.03
2019-02-25T06:09:36.631Z,1011.99
2019-02-25T06:10:36.755Z,1012.03
2019-02-25T06:11:36.872Z,1012.04
2019-02-25T06:12:37.016Z,1012.06
2019-02-25T06:13:37.137Z,1012.08
2019-02-25T06:14:37.266Z,1012.06
2019-02-25T06:15:37.383Z,1012.07
2019-02-25T06:16:37.536Z,1012.04
2019-02-25T06:17:37.646Z,1012.02
2019-02-25T06:18:37.769Z,1012.02
2019-02-25T06:19:37.906Z,1012.05
2019-02-25T06:20:38.023Z,1012.03
2019-02-25T06:21:38.150Z,1012.06
2019-02-25T06:22:38.268Z,1012.03
2019-02-25T06:23:38.384Z,1012.03
2019-02-25T06:24:38.503Z,1012.08
2019-02-25T06:25:38.631Z,1012.06
2019-02-25T06:26:38.843Z,1012.10
2019-02-25T06:27:38.881Z,1012.20
2019-02-25T06:28:39.006Z,1012.19
2019-02-25T06:29:39.145Z,1012.19
2019-02-25T06:30:39.250Z,1012.20
2019-02-25T06:31:39.381Z,1012.21
2019-02-25T06:32:39.506Z,1012.21
2019-02-25T06:33:39.633Z,1012.19
2019-02-25T06:34:39.759Z,1012.20
2019-02-25T06:35:39.884Z,1012.20
2019-02-25T06:36:40.005Z,1012.22
2019-02-25T06:37:40.130Z,1012.19
2019-02-25T06:38:40.257Z,1012.20
2019-02-25T06:39:40.384Z,1012.19
2019-02-25T06:40:40.507Z,1012.18
2019-02-25T06:41:40.634Z,1012.18
2019-02-25T06:42:40.758Z,1012.17
2019-02-25T06:43:40.883Z,1012.20
2019-02-25T06:44:41.003Z,1012.19
2019-02-25T06:45:41.131Z,1012.21
2019-02-25T06:46:41.254Z,1012.24
2019-02-25T06:47:41.380Z,1012.21
2019-02-25T06:48:41.511Z,1012.22
2019-02-25T06:49:41.637Z,1012.23
2019-02-25T06:50:41.759Z,1012.25
2019-02-25T06:51:41.882Z,1012.26
2019-02-25T06:52:42.012Z,1012.24
2019-02-25T06:53:42.130Z,1012.27
2019-02-25T06:54:42.261Z,1012.28
2019-02-25T06:55:42.380Z,1012.28
2019-02-25T06:56:42.514Z,1012.27
2019-02-25T06:57:42.628Z,1012.29
2019-02-25T06:58:42.761Z,1012.29
2019-02-25T06:59:42.884Z,1012.30
2019-02-25T07:00:43.008Z,1012.30
2019-02-25T07:01:43.138Z,1012.31
2019-02-25T07:02:43.261Z,1012.34
2019-02-25T07:03:43.701Z,1012.32
2019-02-25T07:04:43.510Z,1012.32
2019-02-25T07:05:43.637Z,1012.34
2019-02-25T07:06:43.767Z,1012.35
2019-02-25T07:07:43.891Z,1012.35
2019-02-25T07:08:44.015Z,1012.37
2019-02-25T07:09:44.132Z,1012.39
2019-02-25T07:10:44.257Z,1012.34
2019-02-25T07:11:44.378Z,1012.38
2019-02-25T07:12:44.507Z,1012.38
2019-02-25T07:13:44.619Z,1012.39
2019-02-25T07:14:44.764Z,1012.37
2019-02-25T07:15:44.899Z,1012.36
2019-02-25T07:16:45.024Z,1012.33
2019-02-25T07:17:45.150Z,1012.36
2019-02-25T07:18:45.265Z,1012.39
2019-02-25T07:19:45.424Z,1012.41
2019-02-25T07:20:45.557Z,1012.38
2019-02-25T07:21:45.674Z,1012.36
2019-02-25T07:22:45.788Z,1012.31
2019-02-25T07:23:45.949Z,1012.37
2019-02-25T07:24:52.639Z,1012.34
2019-02-25T07:25:46.194Z,1012.33
2019-02-25T07:26:46.338Z,1012.32
2019-02-25T07:27:46.458Z,1012.29
2019-02-25T07:28:46.584Z,1012.31
2019-02-25T07:29:46.705Z,1012.28
2019-02-25T07:30:47.016Z,1012.26
2019-02-25T07:31:47.011Z,1012.26
2019-02-25T07:32:47.137Z,1012.26
2019-02-25T07:33:47.266Z,1012.24
2019-02-25T07:34:47.395Z,1012.30
2019-02-25T07:35:47.521Z,1012.28
2019-02-25T07:36:47.650Z,1012.27
2019-02-25T07:37:47.768Z,1012.26
2019-02-25T07:38:47.908Z,1012.27
2019-02-25T07:39:48.042Z,1012.26
2019-02-25T07:40:48.157Z,1012.27
2019-02-25T07:41:48.319Z,1012.21
2019-02-25T07:42:48.431Z,1012.25
2019-02-25T07:43:48.560Z,1012.22
2019-02-25T07:44:48.691Z,1012.23
2019-02-25T07:45:48.830Z,1012.23
2019-02-25T07:46:48.955Z,1012.23
2019-02-25T07:47:49.078Z,1012.29
2019-02-25T07:48:49.231Z,1012.30
2019-02-25T07:49:49.351Z,1012.28
2019-02-25T07:50:49.476Z,1012.24
2019-02-25T07:51:49.604Z,1012.26
2019-02-25T07:52:49.753Z,1012.29
2019-02-25T07:53:49.874Z,1012.22
2019-02-25T07:54:50.003Z,1012.23
2019-02-25T07:55:50.129Z,1012.27
2019-02-25T07:56:50.300Z,1012.23
2019-02-25T07:57:50.431Z,1012.22
2019-02-25T07:58:50.541Z,1012.19
2019-02-25T07:59:50.677Z,1012.18
2019-02-25T08:00:50.813Z,1012.22
2019-02-25T08:01:50.939Z,1012.27
2019-02-25T08:02:51.072Z,1012.23
2019-02-25T08:03:51.241Z,1012.24
2019-02-25T08:04:51.335Z,1012.21
2019-02-25T08:05:51.462Z,1012.22
2019-02-25T08:06:51.589Z,1012.25
2019-02-25T08:07:51.718Z,1012.26
2019-02-25T08:08:51.861Z,1012.28
2019-02-25T08:09:51.997Z,1012.24
2019-02-25T08:10:52.126Z,1012.23
2019-02-25T08:11:52.249Z,1012.25
2019-02-25T08:12:52.379Z,1012.26
2019-02-25T08:13:52.513Z,1012.29
2019-02-25T08:14:52.653Z,1012.29
2019-02-25T08:15:52.815Z,1012.32
2019-02-25T08:16:52.946Z,1012.30
2019-02-25T08:17:53.066Z,1012.27
2019-02-25T08:18:53.217Z,1012.30
2019-02-25T08:19:53.337Z,1012.33
2019-02-25T08:20:53.465Z,1012.27
2019-02-25T08:21:53.600Z,1012.31
2019-02-25T08:22:53.742Z,1012.34
2019-02-25T08:23:53.871Z,1012.34
2019-02-25T08:24:53.993Z,1012.32
2019-02-25T08:25:54.114Z,1012.32
2019-02-25T08:26:54.296Z,1012.32
2019-02-25T08:27:54.419Z,1012.35
2019-02-25T08:28:54.544Z,1012.32
2019-02-25T08:29:54.670Z,1012.33
2019-02-25T08:30:54.835Z,1012.36
2019-02-25T08:31:54.959Z,1012.36
2019-02-25T08:32:55.084Z,1012.34
2019-02-25T08:33:55.577Z,1012.35
2019-02-25T08:34:55.373Z,1012.38
2019-02-25T08:35:55.511Z,1012.34
2019-02-25T08:37:02.144Z,1012.35
2019-02-25T08:37:55.763Z,1012.34
2019-02-25T08:38:55.902Z,1012.33
2019-02-25T08:39:56.036Z,1012.34
2019-02-25T08:40:56.159Z,1012.35
2019-02-25T08:41:56.304Z,1012.35
2019-02-25T08:42:56.428Z,1012.32
2019-02-25T08:43:56.554Z,1012.33
2019-02-25T08:44:56.706Z,1012.34
2019-02-25T08:45:56.831Z,1012.30
2019-02-25T08:46:56.951Z,1012.32
2019-02-25T08:47:57.076Z,1012.33
2019-02-25T08:48:57.221Z,1012.34
2019-02-25T08:49:57.348Z,1012.35
2019-02-25T08:50:57.471Z,1012.35
2019-02-25T08:51:57.609Z,1012.41
2019-02-25T08:52:57.742Z,1012.40
2019-02-25T08:53:57.857Z,1012.40
2019-02-25T08:54:57.992Z,1012.40
2019-02-25T08:55:58.402Z,1012.43
2019-02-25T08:56:58.278Z,1012.39
2019-02-25T08:57:58.425Z,1012.41
2019-02-25T08:58:58.549Z,1012.43
2019-02-25T08:59:58.680Z,1012.46
2019-02-25T09:00:58.847Z,1012.44
2019-02-25T09:01:58.972Z,1012.45
2019-02-25T09:02:59.092Z,1012.48
2019-02-25T09:03:59.217Z,1012.47
2019-02-25T09:04:59.370Z,1012.46
2019-02-25T09:05:59.485Z,1012.47
2019-02-25T09:06:59.611Z,1012.46
2019-02-25T09:07:59.743Z,1012.46
2019-02-25T09:08:59.874Z,1012.44
2019-02-25T09:09:59.995Z,1012.43
2019-02-25T09:11:00.128Z,1012.49
2019-02-25T09:12:00.281Z,1012.48
2019-02-25T09:13:00.405Z,1012.43
2019-02-25T09:14:00.535Z,1012.43
2019-02-25T09:15:00.646Z,1012.40
2019-02-25T09:16:00.811Z,1012.45
2019-02-25T09:17:00.937Z,1012.46
2019-02-25T09:18:01.043Z,1012.42
2019-02-25T09:19:01.169Z,1012.40
2019-02-25T09:20:01.313Z,1012.38
2019-02-25T09:21:01.432Z,1012.40
2019-02-25T09:22:01.566Z,1012.43
2019-02-25T09:23:01.688Z,1012.41
2019-02-25T09:24:01.839Z,1012.42
2019-02-25T09:25:01.955Z,1012.37
2019-02-25T09:26:02.082Z,1012.43
2019-02-25T09:27:02.210Z,1012.37
2019-02-25T09:28:02.368Z,1012.37
2019-02-25T09:29:02.475Z,1012.41
2019-02-25T09:30:02.605Z,1012.38
2019-02-25T09:31:02.752Z,1012.39
2019-02-25T09:32:02.904Z,1012.37
2019-02-25T09:33:03.037Z,1012.38
2019-02-25T09:34:03.161Z,1012.44
2019-02-25T09:35:03.278Z,1012.40
2019-02-25T09:36:03.410Z,1012.40
2019-02-25T09:37:03.539Z,1012.40
2019-02-25T09:38:03.686Z,1012.41
2019-02-25T09:39:03.811Z,1012.43
2019-02-25T09:40:03.949Z,1012.46
2019-02-25T09:41:04.088Z,1012.42
2019-02-25T09:42:04.217Z,1012.42
2019-02-25T09:43:04.333Z,1012.47
2019-02-25T09:44:04.461Z,1012.43
2019-02-25T09:45:04.589Z,1012.43
2019-02-25T09:46:04.718Z,1012.44
2019-02-25T09:47:05.234Z,1012.42
2019-02-25T09:48:04.979Z,1012.38
2019-02-25T09:49:05.107Z,1012.35
2019-02-25T09:50:05.235Z,1012.36
2019-02-25T09:51:05.357Z,1012.32
2019-02-25T09:52:05.491Z,1012.35
2019-02-25T09:53:07.237Z,1012.34
2019-02-25T09:54:05.733Z,1012.37
2019-02-25T09:55:05.858Z,1012.41
2019-02-25T09:56:05.979Z,1012.40
2019-02-25T09:57:06.112Z,1012.40
2019-02-25T09:58:06.238Z,1012.45
2019-02-25T09:59:06.372Z,1012.40
2019-02-25T10:00:06.498Z,1012.38
2019-02-25T10:01:06.630Z,1012.30
2019-02-25T10:02:06.755Z,1012.34
2019-02-25T10:03:06.885Z,1012.30
2019-02-25T10:04:08.743Z,1012.29
2019-02-25T10:05:07.144Z,1012.29
2019-02-25T10:06:07.282Z,1012.28
2019-02-25T10:07:07.409Z,1012.27
2019-02-25T10:08:07.540Z,1012.27
2019-02-25T10:09:15.976Z,1012.27
2019-02-25T10:10:07.864Z,1012.25
2019-02-25T10:11:08.004Z,1012.27
2019-02-25T10:12:08.121Z,1012.32
2019-02-25T10:13:08.257Z,1012.31
2019-02-25T10:14:08.386Z,1012.26
2019-02-25T10:15:08.512Z,1012.28
2019-02-25T10:16:08.651Z,1012.33
2019-02-25T10:17:08.781Z,1012.35
2019-02-25T10:18:08.912Z,1012.32
2019-02-25T10:19:09.046Z,1012.35
2019-02-25T10:20:09.171Z,1012.33
2019-02-25T10:21:09.305Z,1012.29
2019-02-25T10:22:09.430Z,1012.35
2019-02-25T10:23:09.556Z,1012.34
2019-02-25T10:24:09.683Z,1012.33
2019-02-25T10:25:09.818Z,1012.35
2019-02-25T10:26:09.959Z,1012.34
2019-02-25T10:27:10.087Z,1012.35
2019-02-25T10:28:10.216Z,1012.37
2019-02-25T10:29:10.353Z,1012.38
2019-02-25T10:30:10.485Z,1012.37
2019-02-25T10:31:11.473Z,1012.38
2019-02-25T10:32:10.747Z,1012.34
2019-02-25T10:33:10.879Z,1012.34
2019-02-25T10:34:11.008Z,1012.33
2019-02-25T10:35:11.145Z,1012.36
2019-02-25T10:36:11.281Z,1012.35
2019-02-25T10:37:13.034Z,1012.38
2019-02-25T10:38:11.566Z,1012.30
2019-02-25T10:39:13.092Z,1012.31
2019-02-25T10:40:13.236Z,1012.35
2019-02-25T10:41:11.989Z,1012.33
2019-02-25T10:42:12.133Z,1012.34
2019-02-25T10:43:12.278Z,1012.37
2019-02-25T10:44:12.427Z,1012.38
2019-02-25T10:45:13.482Z,1012.35
2019-02-25T10:46:13.877Z,1012.35
2019-02-25T10:47:13.610Z,1012.39
2019-02-25T10:48:12.970Z,1012.34
2019-02-25T10:49:13.129Z,1012.34
2019-02-25T10:50:13.261Z,1012.35
2019-02-25T10:51:13.742Z,1012.38
2019-02-25T10:52:15.151Z,1012.41
2019-02-25T10:53:15.547Z,1012.46
2019-02-25T10:54:14.724Z,1012.43
2019-02-25T10:55:13.933Z,1012.49
2019-02-25T10:56:16.220Z,1012.48
2019-02-25T10:57:14.224Z,1012.48
2019-02-25T10:58:14.367Z,1012.50
2019-02-25T10:59:14.504Z,1012.51
2019-02-25T11:00:14.647Z,1012.54
2019-02-25T11:01:17.606Z,1012.52
2019-02-25T11:02:15.403Z,1012.52
2019-02-25T11:03:15.389Z,1012.55
2019-02-25T11:04:17.385Z,1012.62
2019-02-25T11:05:15.410Z,1012.67
2019-02-25T11:06:15.539Z,1012.69
2019-02-25T11:07:15.674Z,1012.70
2019-02-25T11:08:15.822Z,1012.73
2019-02-25T11:09:18.012Z,1012.82
2019-02-25T11:10:18.056Z,1012.81
2019-02-25T11:11:24.893Z,1012.77
2019-02-25T11:12:21.576Z,1012.68
2019-02-25T11:13:16.464Z,1012.61
2019-02-25T11:14:16.598Z,1012.59
2019-02-25T11:15:16.756Z,1012.68
2019-02-25T11:16:18.695Z,1012.80
2019-02-25T11:17:18.318Z,1012.79
2019-02-25T11:18:19.524Z,1012.67
2019-02-25T11:19:17.343Z,1012.63
2019-02-25T11:20:17.475Z,1012.65
2019-02-25T11:21:17.612Z,1012.67
2019-02-25T11:22:17.761Z,1012.69
2019-02-25T11:23:19.421Z,1012.63
2019-02-25T11:24:19.147Z,1012.66
2019-02-25T11:25:19.385Z,1012.62
2019-02-25T11:26:18.353Z,1012.59
2019-02-25T11:27:18.526Z,1012.63
2019-02-25T11:28:25.517Z,1012.68
2019-02-25T11:29:18.796Z,1012.75
2019-02-25T11:30:20.763Z,1012.63
2019-02-25T11:31:22.798Z,1012.47
2019-02-25T11:32:19.874Z,1012.48
2019-02-25T11:33:19.389Z,1012.48
2019-02-25T11:34:19.538Z,1012.51
2019-02-25T11:35:19.674Z,1012.53
2019-02-25T11:36:21.925Z,1012.50
2019-02-25T11:37:22.487Z,1012.50
2019-02-25T11:38:20.123Z,1012.49
2019-02-25T11:39:20.265Z,1012.52
2019-02-25T11:40:20.413Z,1012.50
2019-02-25T11:41:20.563Z,1012.51
2019-02-25T11:42:20.743Z,1012.53
2019-02-25T11:43:21.656Z,1012.53
2019-02-25T11:44:21.179Z,1012.48
2019-02-25T11:45:21.136Z,1012.45
2019-02-25T11:46:21.301Z,1012.48
2019-02-25T11:47:21.441Z,1012.48
2019-02-25T11:48:22.697Z,1012.42
2019-02-25T11:49:21.727Z,1012.43
2019-02-25T11:50:21.905Z,1012.42
2019-02-25T11:51:22.047Z,1012.46
2019-02-25T11:52:22.191Z,1012.46
2019-02-25T11:53:22.372Z,1012.42
2019-02-25T11:54:22.519Z,1012.46
2019-02-25T11:55:22.651Z,1012.43
2019-02-25T11:56:22.801Z,1012.40
2019-02-25T11:57:22.992Z,1012.40
2019-02-25T11:58:23.127Z,1012.36
2019-02-25T11:59:23.286Z,1012.34
2019-02-25T12:00:23.443Z,1012.35
2019-02-25T12:01:23.603Z,1012.35
2019-02-25T12:02:25.975Z,1012.36
2019-02-25T12:03:23.852Z,1012.31
2019-02-25T12:04:23.995Z,1012.34
2019-02-25T12:05:24.158Z,1012.28
2019-02-25T12:06:24.313Z,1012.24
2019-02-25T12:07:24.442Z,1012.23